KDRT/DRT METAR and TAF weather

Enter ICAO airport designator
Station Type Date Time Source
KDRT METAR 2019/12/13 13:53 UTC NOAA

KDRT 131353Z AUTO 00000KT 10SM CLR 03/01 A3003 RMK AO2 SLP166 T00330006


Station Type Date Time Source
KDRT Decoded METAR 2019/12/13 13:53 UTC NOAA

DEL RIO INTERNATIONAL AIRPORT, TX, United States (KDRT) 29-22N 100-55W 313M
Dec 13, 2019 - 08:53 AM EST / 2019.12.13 1353 UTC
Wind: Calm:0
Visibility: 10 mile(s):0
Sky conditions: clear
Temperature: 37.9 F (3.3 C)
Dew Point: 33.1 F (0.6 C)
Relative Humidity: 82%
Pressure (altimeter): 30.03 in. Hg (1016 hPa)
ob: KDRT 131353Z AUTO 00000KT 10SM CLR 03/01 A3003 RMK AO2 SLP166 T00330006
cycle: 14

Station Type Date Time Source
KDRT TAF 2019/12/13 12:34 UTC NOAA

TAF KDRT 131132Z 1312/1412 32006KT P6SM FEW250
FM132000 31012KT P6SM FEW250
FM140100 VRB04KT P6SM SKC

Example: see airport list